Time;durP1;ratioP1;P1;durP2;ratioP2;P2;SDS_P1;SDS_P2;PMS_P1;PMS_P2;Temp;Humidity;BMP_temperature;BMP_pressure;BME280_temperature;BME280_humidity;BME280_pressure;Samples;Min_cycle;Max_cycle;Signal;HPM_P1;HPM_P2
2022/03/16 00:02:03;;;;;;;45.10;26.62;;;;;;;7.98;63.40;99747.75;1794190;80;21045;-38
2022/03/16 00:04:30;;;;;;;46.85;27.17;;;;;;;7.95;63.06;99747.41;1794283;80;20975;-39
2022/03/16 00:06:55;;;;;;;47.78;26.20;;;;;;;7.95;62.84;99748.72;1794255;80;20999;-38
2022/03/16 00:09:21;;;;;;;40.10;25.97;;;;;;;7.88;63.10;99751.17;1794375;80;21549;-38
2022/03/16 00:11:47;;;;;;;46.92;25.50;;;;;;;7.84;63.16;99753.48;1794371;80;21529;-38
2022/03/16 00:14:13;;;;;;;43.75;26.87;;;;;;;7.85;62.82;99743.42;1794361;80;21013;-38
2022/03/16 00:16:39;;;;;;;43.40;24.43;;;;;;;7.83;62.62;99729.06;1794296;80;20974;-38
2022/03/16 00:19:04;;;;;;;41.85;25.00;;;;;;;7.81;63.02;99727.43;1794305;80;20979;-39
2022/03/16 00:21:30;;;;;;;36.45;24.47;;;;;;;7.78;62.85;99723.61;1794257;80;20989;-39
2022/03/16 00:23:56;;;;;;;38.95;24.18;;;;;;;7.73;63.42;99721.61;1794320;80;21038;-38
2022/03/16 00:26:22;;;;;;;38.78;22.98;;;;;;;7.73;62.69;99715.06;1794265;80;20987;-38
2022/03/16 00:28:47;;;;;;;38.28;23.45;;;;;;;7.66;63.90;99719.23;1794324;80;20982;-39
2022/03/16 00:31:13;;;;;;;36.08;23.42;;;;;;;7.65;63.22;99712.27;1794292;80;21029;-38
2022/03/16 00:33:39;;;;;;;35.98;25.12;;;;;;;7.66;63.06;99713.14;1794370;80;21488;-40
2022/03/16 00:36:05;;;;;;;38.38;24.15;;;;;;;7.67;62.79;99722.69;1794264;80;21507;-38
2022/03/16 00:38:31;;;;;;;42.15;25.68;;;;;;;7.66;63.25;99724.46;1794466;80;21643;-39
2022/03/16 00:40:56;;;;;;;41.05;24.87;;;;;;;7.68;63.41;99721.33;1794296;80;20995;-38
2022/03/16 00:43:22;;;;;;;38.78;24.12;;;;;;;7.68;62.91;99710.86;1794307;80;21022;-39
2022/03/16 00:45:48;;;;;;;35.55;24.02;;;;;;;7.68;62.78;99704.31;1794321;80;21876;-38
2022/03/16 00:48:14;;;;;;;35.20;23.38;;;;;;;7.68;62.75;99701.70;1794342;80;20975;-38
2022/03/16 00:50:40;;;;;;;39.05;23.90;;;;;;;7.71;62.76;99690.24;1794278;80;21081;-38
2022/03/16 00:53:06;;;;;;;33.30;23.12;;;;;;;7.73;62.75;99688.88;1794305;80;21010;-38
2022/03/16 00:55:32;;;;;;;40.67;23.35;;;;;;;7.69;62.85;99698.18;1794273;80;21097;-39
2022/03/16 00:57:57;;;;;;;37.25;23.27;;;;;;;7.70;62.87;99699.03;1794358;80;20959;-40
2022/03/16 01:00:24;;;;;;;38.23;23.25;;;;;;;7.69;63.32;99698.18;1794488;80;20990;-38
2022/03/16 01:02:49;;;;;;;37.73;23.02;;;;;;;7.68;63.13;99697.77;1790364;80;21057;-38
2022/03/16 01:05:15;;;;;;;37.17;22.90;;;;;;;7.68;63.04;99695.16;1788663;80;21016;-38
2022/03/16 01:07:41;;;;;;;34.20;21.02;;;;;;;7.67;62.85;99698.66;1788794;80;21014;-39
2022/03/16 01:10:08;;;;;;;32.20;20.65;;;;;;;7.65;63.35;99703.57;1788837;80;20982;-39
2022/03/16 01:12:33;;;;;;;34.70;20.85;;;;;;;7.65;63.25;99697.88;1788988;80;21025;-39
2022/03/16 01:14:59;;;;;;;30.37;20.37;;;;;;;7.68;63.04;99696.92;1788853;80;20952;-39
2022/03/16 01:17:25;;;;;;;36.45;21.45;;;;;;;7.68;62.70;99699.55;1788839;80;20983;-38
2022/03/16 01:19:51;;;;;;;31.25;20.00;;;;;;;7.65;62.65;99696.56;1788833;80;20979;-39
2022/03/16 01:22:17;;;;;;;31.97;20.40;;;;;;;7.61;62.79;99692.36;1788827;80;21002;-39
2022/03/16 01:24:42;;;;;;;31.93;20.20;;;;;;;7.59;62.93;99686.80;1788908;80;20991;-39
2022/03/16 01:27:08;;;;;;;31.20;19.65;;;;;;;7.58;62.79;99690.31;1788901;80;20987;-40
2022/03/16 01:29:34;;;;;;;31.40;20.30;;;;;;;7.58;62.75;99681.99;1788919;80;21523;-39
2022/03/16 01:32:00;;;;;;;29.65;19.57;;;;;;;7.59;62.79;99678.48;1788861;80;20951;-38
2022/03/16 01:34:26;;;;;;;30.85;19.73;;;;;;;7.58;62.77;99680.69;1788868;80;21023;-39
2022/03/16 01:36:52;;;;;;;30.95;19.95;;;;;;;7.57;62.66;99679.00;1788824;80;21010;-39
2022/03/16 01:39:17;;;;;;;27.90;19.70;;;;;;;7.57;62.86;99681.61;1788805;80;20986;-38
2022/03/16 01:41:43;;;;;;;28.77;19.32;;;;;;;7.56;62.83;99683.81;1788850;80;20983;-39
2022/03/16 01:44:10;;;;;;;30.48;20.65;;;;;;;7.57;63.22;99679.00;1788902;80;21025;-38
2022/03/16 01:46:36;;;;;;;34.73;20.92;;;;;;;7.58;63.29;99681.99;1788897;80;21496;-39
2022/03/16 01:49:03;;;;;;;27.98;18.60;;;;;;;7.59;63.16;99683.72;1788776;80;20959;-38
2022/03/16 01:51:31;;;;;;;31.83;20.17;;;;;;;7.61;62.83;99681.89;1789024;80;21014;-38
2022/03/16 01:53:57;;;;;;;28.10;19.73;;;;;;;7.61;62.93;99679.27;1788831;80;21072;-38
2022/03/16 01:56:23;;;;;;;32.42;20.77;;;;;;;7.61;62.87;99677.12;1789092;80;21019;-38
2022/03/16 01:58:49;;;;;;;28.38;19.32;;;;;;;7.62;62.79;99679.69;1788851;80;21027;-38
2022/03/16 02:01:15;;;;;;;29.25;19.73;;;;;;;7.61;62.78;99681.89;1788863;80;21441;-38
2022/03/16 02:03:42;;;;;;;37.05;19.95;;;;;;;7.61;62.64;99676.66;1770769;80;21529;-39
2022/03/16 02:06:09;;;;;;;28.15;19.48;;;;;;;7.62;62.40;99677.50;1769493;81;20991;-38
2022/03/16 02:08:38;;;;;;;28.38;19.15;;;;;;;7.65;62.38;99678.70;1769456;81;21007;-38
2022/03/16 02:11:04;;;;;;;30.37;19.37;;;;;;;7.65;62.51;99679.55;1769354;80;20992;-39
2022/03/16 02:13:34;;;;;;;32.95;18.98;;;;;;;7.66;62.17;99686.50;1769388;81;21818;-39
2022/03/16 02:15:58;;;;;;;26.62;19.12;;;;;;;7.67;62.21;99686.05;1768846;81;20976;-39
2022/03/16 02:18:23;;;;;;;27.58;18.98;;;;;;;7.67;62.16;99680.34;1769414;80;21544;-38
2022/03/16 02:20:51;;;;;;;25.02;18.12;;;;;;;7.68;62.26;99678.14;1769339;80;20988;-38
2022/03/16 02:23:17;;;;;;;29.63;17.98;;;;;;;7.69;62.17;99679.86;1769347;80;21012;-38
2022/03/16 02:25:53;;;;;;;26.07;18.32;;;;;;;7.70;62.05;99680.70;1769298;81;20979;-38
2022/03/16 02:28:20;;;;;;;25.52;18.50;;;;;;;7.74;61.86;99679.67;1748208;81;21862;-38
2022/03/16 02:30:47;;;;;;;24.60;18.40;;;;;;;7.75;61.82;99677.89;1769381;80;20979;-38
2022/03/16 02:33:13;;;;;;;30.10;20.00;;;;;;;7.74;61.90;99674.44;1769303;80;20948;-38
2022/03/16 02:35:39;;;;;;;28.05;19.45;;;;;;;7.76;61.56;99674.38;1769335;80;20988;-38
2022/03/16 02:38:06;;;;;;;29.05;19.73;;;;;;;7.74;61.65;99670.97;1769419;80;20979;-38
2022/03/16 02:43:39;;;;;;;37.60;20.82;;;;;;;7.68;62.22;99668.98;1777558;78;23291;-38
2022/03/16 02:46:05;;;;;;;29.82;19.50;;;;;;;7.64;62.01;99673.94;1762133;81;21020;-38
2022/03/16 02:48:31;;;;;;;34.25;21.05;;;;;;;7.62;62.17;99670.95;1753685;81;21055;-38
2022/03/16 02:50:58;;;;;;;30.17;20.80;;;;;;;7.63;62.08;99671.37;1776272;81;21071;-38
2022/03/16 02:53:24;;;;;;;26.48;20.32;;;;;;;7.60;62.30;99678.86;1767165;80;21187;-41
2022/03/16 02:55:50;;;;;;;30.20;19.70;;;;;;;7.58;61.98;99676.76;1743064;80;21500;-38
2022/03/16 02:58:17;;;;;;;30.30;19.50;;;;;;;7.52;62.90;99677.45;1743173;80;22633;-38
2022/03/16 03:00:44;;;;;;;29.25;20.05;;;;;;;7.50;62.81;99680.13;1777222;81;21568;-38
2022/03/16 03:03:10;;;;;;;29.37;20.72;;;;;;;7.50;62.21;99679.66;1760412;80;21016;-38
2022/03/16 03:05:36;;;;;;;33.15;20.50;;;;;;;7.49;62.66;99679.28;1779073;80;21043;-38
2022/03/16 03:08:02;;;;;;;28.20;20.52;;;;;;;7.47;62.68;99681.08;1754753;80;21011;-38
2022/03/16 03:10:28;;;;;;;28.02;19.87;;;;;;;7.48;62.28;99686.72;1764716;80;21054;-38
2022/03/16 03:12:54;;;;;;;31.80;20.62;;;;;;;7.46;62.42;99682.47;1744570;80;21011;-40
2022/03/16 03:15:20;;;;;;;29.30;19.62;;;;;;;7.47;62.16;99682.38;1758534;80;20999;-40
2022/03/16 03:17:46;;;;;;;29.72;20.25;;;;;;;7.45;62.60;99692.05;1750978;80;21018;-38
2022/03/16 03:20:13;;;;;;;29.72;19.85;;;;;;;7.45;62.37;99689.91;1757889;80;21043;-38
2022/03/16 03:22:40;;;;;;;28.60;20.17;;;;;;;7.43;62.83;99686.03;1759934;80;21513;-39
2022/03/16 03:25:12;;;;;;;31.95;22.07;;;;;;;7.43;62.61;99695.65;1762486;80;20980;-39
2022/03/16 03:27:38;;;;;;;37.40;23.80;;;;;;;7.44;62.63;99689.48;1776665;81;21145;-39
2022/03/16 03:30:06;;;;;;;33.08;22.17;;;;;;;7.41;62.68;99690.47;1749884;80;21011;-39
2022/03/16 03:32:32;;;;;;;;;;;;;;;7.44;62.48;99692.98;1770393;80;21011;-39
2022/03/16 03:34:58;;;;;;;26.25;19.42;;;;;;;7.45;63.02;99700.38;1759134;80;20413;-39
2022/03/16 03:37:28;;;;;;;29.20;20.50;;;;;;;7.48;62.26;99702.89;1759373;80;21014;-38
2022/03/16 03:39:54;;;;;;;31.17;20.15;;;;;;;7.50;62.00;99702.38;1760037;80;21019;-39
2022/03/16 03:42:20;;;;;;;26.73;19.37;;;;;;;7.48;61.99;99701.58;1760734;80;21023;-39
2022/03/16 03:44:47;;;;;;;25.32;17.87;;;;;;;7.49;62.01;99704.58;1764680;80;20995;-39
2022/03/16 03:47:13;;;;;;;27.22;19.15;;;;;;;7.51;61.59;99711.91;1768369;80;21556;-39
2022/03/16 03:49:42;;;;;;;27.32;18.52;;;;;;;7.50;61.81;99715.45;1777982;81;21011;-39
2022/03/16 03:52:10;;;;;;;26.30;18.37;;;;;;;7.49;61.65;99712.00;1778427;81;21499;-39
2022/03/16 03:54:36;;;;;;;25.05;17.30;;;;;;;7.48;62.13;99710.73;1778754;80;20999;-39
2022/03/16 03:57:03;;;;;;;26.35;18.15;;;;;;;7.48;61.85;99710.73;1763103;80;20992;-39
2022/03/16 03:59:28;;;;;;;28.25;19.17;;;;;;;7.46;61.91;99712.09;1752806;80;21445;-39
2022/03/16 04:01:54;;;;;;;28.12;18.52;;;;;;;7.47;62.15;99712.48;1742411;80;21338;-38
2022/03/16 04:04:20;;;;;;;28.87;19.55;;;;;;;7.51;62.02;99707.98;1745025;81;21059;-39
2022/03/16 04:06:46;;;;;;;28.27;18.82;;;;;;;7.52;61.95;99711.02;1746113;81;21086;-38
2022/03/16 04:09:12;;;;;;;29.92;19.48;;;;;;;7.51;61.98;99715.84;1744309;81;21056;-39
2022/03/16 04:11:38;;;;;;;28.10;19.75;;;;;;;7.52;61.60;99709.70;1745192;81;21570;-39
2022/03/16 04:14:05;;;;;;;31.65;21.50;;;;;;;7.42;61.90;99715.73;1742796;81;21468;-38
2022/03/16 04:16:31;;;;;;;34.25;22.73;;;;;;;7.36;61.92;99715.94;1746564;81;20975;-38
2022/03/16 04:18:58;;;;;;;34.98;23.77;;;;;;;7.26;62.23;99714.57;1746801;81;21015;-38
2022/03/16 04:21:24;;;;;;;37.05;24.63;;;;;;;7.16;62.76;99719.25;1743904;81;21007;-38
2022/03/16 04:23:49;;;;;;;43.80;26.60;;;;;;;7.04;63.34;99724.89;1744243;81;21012;-38
2022/03/16 04:26:16;;;;;;;39.73;27.42;;;;;;;6.99;62.93;99732.06;1744676;81;21004;-38
2022/03/16 04:28:42;;;;;;;42.23;27.17;;;;;;;6.89;63.10;99727.56;1744862;81;21108;-39
2022/03/16 04:31:08;;;;;;;43.00;27.05;;;;;;;6.79;63.58;99727.03;1744291;81;21673;-39
2022/03/16 04:33:34;;;;;;;41.08;28.32;;;;;;;6.54;65.40;99737.41;1744059;81;21059;-39
2022/03/16 04:36:00;;;;;;;48.70;28.05;;;;;;;6.54;65.40;99737.41;1745713;81;21004;-39
2022/03/16 04:38:26;;;;;;;50.00;31.12;;;;;;;6.59;64.89;99743.36;1742450;81;21007;-39
2022/03/16 04:40:51;;;;;;;48.30;30.52;;;;;;;6.59;65.20;99740.74;1745119;81;21019;-39
2022/03/16 04:43:17;;;;;;;51.37;31.60;;;;;;;6.56;65.80;99741.29;1745951;81;21063;-39
2022/03/16 04:45:43;;;;;;;48.38;30.25;;;;;;;6.48;66.36;99742.38;1746254;81;21016;-39
2022/03/16 04:48:13;;;;;;;51.35;30.57;;;;;;;6.47;66.01;99740.66;1742622;81;21059;-39
2022/03/16 04:50:40;;;;;;;54.65;32.53;;;;;;;6.50;65.62;99743.19;1744222;81;21024;-39
2022/03/16 04:53:07;;;;;;;58.45;33.45;;;;;;;6.50;65.89;99749.72;1746176;82;21015;-39
2022/03/16 04:55:37;;;;;;;59.70;32.83;;;;;;;6.48;66.28;99747.61;1745992;81;21100;-39
2022/03/16 04:58:06;;;;;;;61.65;34.95;;;;;;;6.53;66.12;99746.14;1732823;81;21442;-39
2022/03/16 05:00:34;;;;;;;57.80;33.80;;;;;;;6.57;65.63;99749.08;1742771;81;21023;-39
2022/03/16 05:03:00;;;;;;;56.92;35.35;;;;;;;6.58;65.87;99752.55;1746251;81;21027;-39
2022/03/16 05:05:25;;;;;;;59.20;34.95;;;;;;;6.62;65.53;99751.53;1743777;81;21011;-39
2022/03/16 05:07:51;;;;;;;59.67;35.65;;;;;;;6.60;65.85;99760.72;1740196;81;21484;-39
2022/03/16 05:10:17;;;;;;;62.70;36.98;;;;;;;6.57;66.00;99759.97;1744046;81;21076;-39
2022/03/16 05:12:44;;;;;;;59.05;35.13;;;;;;;6.60;65.86;99761.19;1743494;81;21480;-39
2022/03/16 05:15:16;;;;;;;61.02;36.38;;;;;;;6.59;65.54;99758.19;1744085;81;21043;-39
2022/03/16 05:17:43;;;;;;;52.60;34.10;;;;;;;6.54;65.66;99757.01;1746977;81;21035;-39
2022/03/16 05:20:10;;;;;;;61.10;35.33;;;;;;;6.55;65.41;99758.73;1743783;81;21114;-39
2022/03/16 05:22:50;;;;;;;57.58;35.43;;;;;;;6.47;66.23;99759.41;1743195;81;21231;-39
2022/03/16 05:25:22;;;;;;;56.88;34.38;;;;;;;6.45;66.00;99765.98;1746844;81;21580;-39
2022/03/16 05:27:53;;;;;;;58.23;35.35;;;;;;;6.45;65.70;99764.67;1739758;81;21043;-39
2022/03/16 05:30:22;;;;;;;57.65;35.13;;;;;;;6.43;65.56;99765.17;1746834;81;21457;-39
2022/03/16 05:32:51;;;;;;;59.25;35.83;;;;;;;6.40;65.14;99778.33;1721157;81;21500;-39
2022/03/16 05:35:17;;;;;;;64.45;36.15;;;;;;;6.37;65.31;99776.25;1747099;81;21580;-39
2022/03/16 05:37:43;;;;;;;58.60;36.17;;;;;;;6.34;65.55;99779.83;1738465;81;21058;-38
2022/03/16 05:40:10;;;;;;;70.45;36.80;;;;;;;6.30;65.41;99784.75;1745625;81;21004;-38
2022/03/16 05:42:37;;;;;;;63.52;36.75;;;;;;;6.27;65.48;99784.83;1745185;80;21125;-38
2022/03/16 05:45:04;;;;;;;69.00;39.63;;;;;;;6.21;65.66;99795.47;1747749;81;21023;-38
2022/03/16 05:47:34;;;;;;;69.80;38.95;;;;;;;6.14;65.89;99793.02;1745281;81;21015;-38
2022/03/16 05:49:59;;;;;;;65.52;40.08;;;;;;;6.10;66.58;99794.02;1744691;81;20988;-39
2022/03/16 05:52:26;;;;;;;68.28;38.38;;;;;;;6.12;66.27;99800.05;1744181;81;20983;-38
2022/03/16 05:54:55;;;;;;;77.45;40.75;;;;;;;6.11;66.84;99802.27;1746520;81;21007;-38
2022/03/16 05:57:22;;;;;;;68.12;37.90;;;;;;;6.02;67.54;99809.48;1744054;81;20983;-38
2022/03/16 05:59:48;;;;;;;61.43;38.20;;;;;;;6.05;66.92;99811.56;1745164;81;21008;-38
2022/03/16 06:02:14;;;;;;;67.82;39.33;;;;;;;6.08;67.08;99809.33;1746930;81;21015;-38
2022/03/16 06:04:44;;;;;;;57.45;36.17;;;;;;;6.09;67.10;99817.13;1743404;81;20964;-38
2022/03/16 06:07:12;;;;;;;65.22;36.73;;;;;;;6.06;67.42;99813.75;1742506;81;21054;-38
2022/03/16 06:09:39;;;;;;;64.85;38.30;;;;;;;6.07;67.63;99818.90;1745820;81;21050;-38
2022/03/16 06:12:06;;;;;;;;;;;;;;;6.10;67.19;99820.13;1747830;81;21108;-38
2022/03/16 06:14:32;;;;;;;61.25;36.80;;;;;;;6.15;67.31;99828.69;1744473;81;20172;-39
2022/03/16 06:16:58;;;;;;;71.50;38.10;;;;;;;6.22;66.80;99831.99;1745830;81;21430;-39
2022/03/16 06:19:24;;;;;;;61.92;36.75;;;;;;;6.25;66.17;99828.42;1744132;81;21006;-39
2022/03/16 06:21:51;;;;;;;55.10;34.35;;;;;;;6.24;66.40;99834.11;1743340;81;21164;-38
2022/03/16 06:24:17;;;;;;;73.30;36.42;;;;;;;6.25;66.65;99831.88;1742257;81;21046;-39
2022/03/16 06:26:44;;;;;;;64.00;36.68;;;;;;;6.29;66.37;99833.53;1744763;81;21024;-39
2022/03/16 06:29:10;;;;;;;72.20;36.60;;;;;;;6.30;66.77;99836.53;1745963;81;21055;-40
2022/03/16 06:31:36;;;;;;;60.40;35.15;;;;;;;6.36;66.27;99843.33;1747599;81;21008;-40
2022/03/16 06:34:03;;;;;;;60.55;34.98;;;;;;;6.38;66.31;99849.36;1743842;81;21001;-39
2022/03/16 06:36:29;;;;;;;57.80;34.13;;;;;;;6.37;66.24;99848.97;1744426;81;21003;-40
2022/03/16 06:38:56;;;;;;;58.30;34.92;;;;;;;6.37;66.34;99840.25;1739082;81;21406;-40
2022/03/16 06:41:23;;;;;;;64.75;34.90;;;;;;;6.44;66.10;99845.28;1742423;81;21093;-40
2022/03/16 06:43:49;;;;;;;65.52;34.38;;;;;;;6.44;66.39;99850.94;1743127;81;21011;-40
2022/03/16 06:46:15;;;;;;;60.00;34.13;;;;;;;6.50;65.77;99847.70;1743660;81;21482;-39
2022/03/16 06:48:42;;;;;;;56.08;33.08;;;;;;;6.57;65.79;99851.00;1746548;81;20980;-40
2022/03/16 06:51:08;;;;;;;65.45;35.78;;;;;;;6.65;65.91;99859.45;1746437;82;20996;-39
2022/03/16 06:53:34;;;;;;;57.98;33.70;;;;;;;6.72;65.84;99854.44;1746407;81;21480;-40
2022/03/16 06:56:00;;;;;;;58.70;34.23;;;;;;;6.77;65.59;99859.54;1745559;81;21015;-40
2022/03/16 06:58:25;;;;;;;54.40;33.73;;;;;;;6.82;65.63;99861.56;1746288;81;20996;-40
2022/03/16 07:00:51;;;;;;;60.35;34.38;;;;;;;6.92;65.45;99868.20;1742819;81;21015;-40
2022/03/16 07:03:17;;;;;;;59.20;33.60;;;;;;;7.03;65.24;99865.25;1745612;81;21099;-40
2022/03/16 07:05:43;;;;;;;58.23;34.40;;;;;;;7.08;65.26;99863.81;1744314;81;21015;-40
2022/03/16 07:08:14;;;;;;;54.70;34.80;;;;;;;7.13;65.00;99864.96;1744811;81;21054;-40
2022/03/16 07:10:43;;;;;;;64.92;35.70;;;;;;;7.12;64.78;99870.66;1748146;81;21031;-40
2022/03/16 07:13:10;;;;;;;62.88;34.23;;;;;;;7.18;64.61;99874.37;1743783;81;21051;-40
2022/03/16 07:15:38;;;;;;;61.20;34.55;;;;;;;7.23;64.45;99877.70;1746793;81;21082;-40
2022/03/16 07:18:04;;;;;;;57.80;34.20;;;;;;;7.30;64.27;99880.52;1745805;81;20995;-40
2022/03/16 07:20:32;;;;;;;59.65;35.10;;;;;;;7.36;64.08;99879.92;1745144;81;21050;-40
2022/03/16 07:23:11;;;;;;;54.35;32.98;;;;;;;7.39;63.98;99887.69;1745321;81;21040;-40
2022/03/16 07:25:41;;;;;;;63.28;35.55;;;;;;;7.51;63.58;99891.18;1737565;81;21087;-39
2022/03/16 07:28:08;;;;;;;68.28;35.25;;;;;;;7.54;63.45;99900.25;1747587;81;21052;-40
2022/03/16 07:30:35;;;;;;;;;;;;;;;7.54;63.51;99902.02;1749729;81;21012;-39
2022/03/16 07:33:02;;;;;;;60.03;33.02;;;;;;;7.55;63.73;99907.20;1747159;81;20112;-39
2022/03/16 07:35:28;;;;;;;57.05;35.08;;;;;;;7.62;63.66;99898.68;1745600;81;20990;-40
2022/03/16 07:37:57;;;;;;;62.30;32.55;;;;;;;7.73;63.21;99903.13;1742612;81;20979;-39
2022/03/16 07:40:24;;;;;;;51.73;32.45;;;;;;;7.74;63.33;99907.44;1747037;81;21121;-40
2022/03/16 07:42:52;;;;;;;;;;;;;;;7.81;62.94;99906.78;1748652;81;20984;-40
2022/03/16 07:45:20;;;;;;;52.75;30.65;;;;;;;7.82;63.09;99915.02;1744976;81;20112;-40
2022/03/16 07:47:50;;;;;;;;;;;;;;;7.88;62.97;99909.59;1748445;81;21055;-40
2022/03/16 07:50:17;;;;;;;53.80;32.40;;;;;;;7.93;62.88;99911.61;1748429;81;20183;-39
2022/03/16 07:52:43;;;;;;;58.20;33.05;;;;;;;8.00;62.63;99916.16;1747905;81;21028;-39
2022/03/16 07:55:11;;;;;;;58.15;32.33;;;;;;;7.97;62.58;99922.84;1744077;81;21448;-39
2022/03/16 07:57:38;;;;;;;53.85;32.38;;;;;;;8.04;62.34;99925.61;1749513;81;21442;-39
2022/03/16 08:00:07;;;;;;;52.75;31.25;;;;;;;8.05;62.37;99933.89;1743687;81;21011;-39
2022/03/16 08:02:33;;;;;;;56.30;33.00;;;;;;;8.08;62.32;99929.40;1744499;81;21563;-39
2022/03/16 08:05:00;;;;;;;53.13;32.67;;;;;;;8.09;62.40;99936.80;1745211;81;20981;-39
2022/03/16 08:07:28;;;;;;;49.55;31.80;;;;;;;8.16;62.31;99934.83;1745344;81;21047;-39
2022/03/16 08:09:55;;;;;;;53.28;32.35;;;;;;;8.30;62.04;99940.91;1741853;81;21003;-40
2022/03/16 08:12:21;;;;;;;53.50;31.67;;;;;;;8.40;62.05;99945.77;1746939;81;20984;-40
2022/03/16 08:14:48;;;;;;;60.08;34.10;;;;;;;8.51;61.76;99939.29;1747357;81;22279;-39
2022/03/16 08:17:14;;;;;;;53.25;34.78;;;;;;;8.64;61.71;99944.47;1744040;81;21070;-40
2022/03/16 08:19:40;;;;;;;58.20;34.13;;;;;;;8.81;61.04;99944.71;1743754;81;21018;-39
2022/03/16 08:22:05;;;;;;;56.92;34.35;;;;;;;8.84;61.03;99948.54;1747721;81;21521;-40
2022/03/16 08:24:31;;;;;;;52.15;32.17;;;;;;;8.99;60.72;99947.56;1745816;81;21914;-40
2022/03/16 08:26:57;;;;;;;58.98;34.58;;;;;;;9.06;60.33;99940.29;1749265;81;21004;-40
2022/03/16 08:29:23;;;;;;;61.45;33.25;;;;;;;9.21;60.21;99941.87;1746075;81;21476;-40
2022/03/16 08:31:48;;;;;;;58.28;34.25;;;;;;;9.31;59.44;99944.97;1748707;81;21544;-40
2022/03/16 08:34:14;;;;;;;61.58;35.83;;;;;;;9.33;58.36;99948.86;1751104;82;21473;-39
2022/03/16 08:36:40;;;;;;;55.88;33.48;;;;;;;9.58;58.65;99946.10;1747920;81;21492;-40
2022/03/16 08:39:07;;;;;;;66.35;35.43;;;;;;;9.73;57.28;99947.23;1747400;81;21003;-40
2022/03/16 08:41:33;;;;;;;52.58;33.50;;;;;;;9.80;57.07;99942.13;1746023;81;21517;-40
2022/03/16 08:44:00;;;;;;;55.70;34.55;;;;;;;9.97;56.57;99939.66;1751013;82;21830;-40
2022/03/16 08:46:26;;;;;;;63.35;35.75;;;;;;;10.06;56.05;99941.48;1747337;81;21051;-40
2022/03/16 08:48:52;;;;;;;55.52;34.15;;;;;;;10.24;55.48;99942.47;1746298;81;21038;-40
2022/03/16 08:51:17;;;;;;;50.40;32.33;;;;;;;10.48;55.22;99944.07;1748455;81;21060;-40
2022/03/16 08:53:43;;;;;;;57.55;33.63;;;;;;;10.75;53.92;99940.66;1747172;82;21052;-40
2022/03/16 08:56:13;;;;;;;53.02;32.88;;;;;;;11.06;54.68;99940.56;1746463;81;21045;-41
2022/03/16 08:58:37;;;;;;;;;;;;;;;11.27;52.93;99940.45;1744723;81;21472;-41
2022/03/16 09:01:03;;;;;;;47.48;28.15;;;;;;;11.33;52.37;99948.05;1744950;81;20156;-39
2022/03/16 09:03:29;;;;;;;54.42;32.10;;;;;;;11.45;50.76;99949.25;1745987;82;20985;-39
2022/03/16 09:05:55;;;;;;;54.20;32.00;;;;;;;11.50;51.35;99953.84;1742640;81;20995;-39
2022/03/16 09:08:21;;;;;;;48.90;30.60;;;;;;;11.49;49.05;99956.07;1744924;81;21181;-39
2022/03/16 09:10:47;;;;;;;48.58;31.82;;;;;;;11.75;50.81;99957.45;1746265;81;21117;-39
2022/03/16 09:13:15;;;;;;;49.18;31.40;;;;;;;11.94;50.31;99960.04;1746779;81;21007;-40
2022/03/16 09:15:43;;;;;;;52.60;32.00;;;;;;;12.10;49.81;99962.77;1743103;80;21078;-40
2022/03/16 09:18:09;;;;;;;50.83;31.10;;;;;;;12.16;49.26;99961.12;1719816;81;21508;-40
2022/03/16 09:20:37;;;;;;;60.83;31.62;;;;;;;12.04;46.60;99964.38;1744182;81;21058;-39
2022/03/16 09:23:03;;;;;;;62.23;35.03;;;;;;;12.07;47.38;99964.23;1744678;81;21006;-39
2022/03/16 09:25:29;;;;;;;58.17;34.83;;;;;;;11.98;47.14;99969.97;1746904;81;21004;-40
2022/03/16 09:27:55;;;;;;;84.55;36.25;;;;;;;11.86;45.02;99972.26;1746349;81;21005;-40
2022/03/16 09:30:23;;;;;;;53.50;34.43;;;;;;;11.62;45.09;99973.45;1742555;81;21038;-40
2022/03/16 09:32:49;;;;;;;57.85;35.10;;;;;;;11.77;45.37;99985.02;1744493;81;21071;-40
2022/03/16 09:35:15;;;;;;;54.85;34.35;;;;;;;11.84;46.25;99992.57;1745850;81;21011;-40
2022/03/16 09:37:41;;;;;;;57.27;33.38;;;;;;;11.73;46.00;99990.90;1742964;81;20995;-40
2022/03/16 09:40:08;;;;;;;59.88;34.45;;;;;;;11.53;46.23;99983.96;1743567;81;21050;-40
2022/03/16 09:42:34;;;;;;;60.20;34.73;;;;;;;11.50;45.13;99986.30;1743013;81;21615;-40
2022/03/16 09:45:02;;;;;;;56.92;37.00;;;;;;;11.32;45.07;99991.13;1745917;81;21027;-41
2022/03/16 09:47:30;;;;;;;60.70;37.00;;;;;;;11.27;46.54;99989.17;1744792;81;21003;-39
2022/03/16 09:49:57;;;;;;;54.18;34.95;;;;;;;11.12;46.21;99992.90;1744577;81;21023;-41
2022/03/16 09:52:23;;;;;;;68.35;37.28;;;;;;;11.19;46.04;99991.28;1744540;81;21028;-40
2022/03/16 09:54:50;;;;;;;54.80;35.75;;;;;;;11.11;46.39;99991.21;1747434;81;21059;-40
2022/03/16 09:57:16;;;;;;;68.67;36.00;;;;;;;11.13;46.19;99990.67;1744955;81;21896;-40
2022/03/16 09:59:43;;;;;;;62.83;35.98;;;;;;;11.04;46.15;99997.68;1744479;80;21952;-40
2022/03/16 10:02:16;;;;;;;60.85;36.38;;;;;;;11.08;45.15;100004.97;1765869;80;21003;-40
2022/03/16 10:04:42;;;;;;;59.18;34.90;;;;;;;11.03;45.69;100000.37;1753207;80;21503;-41
2022/03/16 10:07:08;;;;;;;62.17;34.48;;;;;;;11.04;45.68;99999.00;1763101;80;21615;-40
2022/03/16 10:15:18;;;;;;;119.67;38.15;;;;;;;11.19;45.94;100017.61;1776930;80;21011;-40
